createdAt,value
2019-05-03T00:00:13.692Z,22.97
2019-05-03T00:03:01.755Z,23.70
2019-05-03T00:05:41.772Z,21.77
2019-05-03T00:08:12.673Z,22.80
2019-05-03T00:10:42.700Z,23.13
2019-05-03T00:13:14.385Z,23.97
2019-05-03T00:15:54.838Z,23.80
2019-05-03T00:18:24.935Z,23.90
2019-05-03T00:20:54.864Z,22.40
2019-05-03T00:23:24.739Z,24.10
2019-05-03T00:25:54.603Z,23.43
2019-05-03T00:28:24.620Z,24.03
2019-05-03T00:30:54.574Z,24.50
2019-05-03T00:33:24.869Z,24.27
2019-05-03T00:36:13.134Z,24.93
2019-05-03T00:38:43.065Z,23.83
2019-05-03T00:41:13.080Z,24.27
2019-05-03T00:43:43.022Z,26.13
2019-05-03T00:46:14.059Z,25.77
2019-05-03T00:48:46.617Z,25.33
2019-05-03T00:51:17.453Z,25.20
2019-05-03T00:53:48.829Z,25.03
2019-05-03T00:56:18.760Z,24.63
2019-05-03T00:58:53.215Z,26.30
2019-05-03T01:01:23.233Z,26.17
2019-05-03T01:03:53.113Z,25.53
2019-05-03T01:06:24.251Z,24.20
2019-05-03T01:08:54.271Z,24.63
2019-05-03T01:11:24.144Z,25.13
2019-05-03T01:13:54.017Z,23.73
2019-05-03T01:16:25.519Z,23.63
2019-05-03T01:18:55.430Z,25.03
2019-05-03T01:21:25.301Z,25.87
2019-05-03T01:23:55.160Z,25.27
2019-05-03T01:26:25.045Z,25.33
2019-05-03T01:28:54.896Z,24.77
2019-05-03T01:31:24.853Z,26.70
2019-05-03T01:33:54.775Z,24.43
2019-05-03T01:36:24.644Z,25.77
2019-05-03T01:38:54.511Z,27.27
2019-05-03T01:41:24.390Z,24.67
2019-05-03T01:43:54.326Z,25.23
2019-05-03T01:46:24.264Z,26.27
2019-05-03T01:48:58.613Z,25.03
2019-05-03T01:51:45.159Z,26.47
2019-05-03T01:54:15.045Z,25.90
2019-05-03T01:56:56.001Z,25.43
2019-05-03T01:59:16.589Z,26.33
2019-05-03T02:01:54.224Z,26.43
2019-05-03T02:04:25.731Z,24.87
2019-05-03T02:06:56.747Z,27.07
2019-05-03T02:09:26.688Z,25.43
2019-05-03T02:11:56.556Z,27.43
2019-05-03T02:14:26.426Z,26.40
2019-05-03T02:16:57.939Z,25.23
2019-05-03T02:19:27.864Z,25.53
2019-05-03T02:21:57.807Z,24.47
2019-05-03T02:24:27.680Z,23.83
2019-05-03T02:26:57.544Z,25.63
2019-05-03T02:29:27.472Z,24.93
2019-05-03T02:31:57.424Z,25.37
2019-05-03T02:34:27.348Z,24.73
2019-05-03T02:36:57.313Z,25.80
2019-05-03T02:39:27.191Z,25.77
2019-05-03T02:42:02.929Z,25.37
2019-05-03T02:44:28.771Z,27.57
2019-05-03T02:47:18.342Z,26.03
2019-05-03T02:49:49.860Z,26.43
2019-05-03T02:52:36.472Z,26.73
2019-05-03T02:55:09.068Z,27.27
2019-05-03T02:57:39.094Z,25.33
2019-05-03T03:00:11.354Z,27.60
2019-05-03T03:02:41.477Z,27.13
2019-05-03T03:05:12.578Z,29.13
2019-05-03T03:07:45.964Z,26.40
2019-05-03T03:10:16.641Z,27.77
2019-05-03T03:12:49.669Z,27.63
2019-05-03T03:15:19.577Z,27.03
2019-05-03T03:17:55.803Z,27.47
2019-05-03T03:20:25.417Z,27.63
2019-05-03T03:22:58.042Z,28.23
2019-05-03T03:25:32.851Z,26.13
2019-05-03T03:28:05.363Z,27.13
2019-05-03T03:31:08.332Z,27.83
2019-05-03T03:33:40.219Z,28.13
2019-05-03T03:36:37.609Z,26.93
2019-05-03T03:38:41.406Z,25.90
2019-05-03T03:41:12.587Z,27.83
2019-05-03T03:43:46.268Z,27.10
2019-05-03T03:46:16.498Z,26.20
2019-05-03T03:48:47.109Z,27.27
2019-05-03T03:51:20.165Z,27.13
2019-05-03T03:53:55.463Z,26.70
2019-05-03T03:56:27.865Z,26.43
2019-05-03T03:58:57.753Z,26.30
2019-05-03T04:01:28.124Z,25.23
2019-05-03T04:03:58.601Z,26.20
2019-05-03T04:06:40.679Z,26.20
2019-05-03T04:09:10.647Z,26.73
2019-05-03T04:11:41.790Z,25.10
2019-05-03T04:14:16.172Z,24.73
2019-05-03T04:16:56.300Z,25.30
2019-05-03T04:19:29.870Z,24.60
2019-05-03T04:22:01.803Z,24.27
2019-05-03T04:24:35.000Z,23.93
2019-05-03T04:27:18.729Z,23.33
2019-05-03T04:29:40.339Z,23.37
2019-05-03T04:32:10.614Z,22.40
2019-05-03T04:34:40.873Z,24.10
2019-05-03T04:37:10.890Z,21.93
2019-05-03T04:39:40.937Z,24.13
2019-05-03T04:42:11.746Z,22.20
2019-05-03T04:44:41.629Z,21.57
2019-05-03T04:47:11.558Z,22.10
2019-05-03T04:49:41.496Z,22.97
2019-05-03T04:52:11.363Z,24.77
2019-05-03T04:54:45.066Z,21.37
2019-05-03T04:57:17.605Z,20.53
2019-05-03T04:59:46.071Z,21.40
2019-05-03T05:02:16.164Z,21.27
2019-05-03T05:04:46.524Z,22.70
2019-05-03T05:07:17.595Z,20.50
2019-05-03T05:09:47.572Z,20.07
2019-05-03T05:12:17.444Z,19.93
2019-05-03T05:14:47.400Z,21.10
2019-05-03T05:17:19.066Z,19.53
2019-05-03T05:19:54.902Z,20.17
2019-05-03T05:22:26.557Z,20.13
2019-05-03T05:24:57.813Z,20.37
2019-05-03T05:27:34.499Z,19.67
2019-05-03T05:30:06.298Z,19.67
2019-05-03T05:32:36.345Z,19.47
2019-05-03T05:35:07.233Z,19.37
2019-05-03T05:37:37.206Z,20.07
2019-05-03T05:40:07.537Z,18.70
2019-05-03T05:42:37.561Z,18.20
2019-05-03T05:45:07.846Z,18.67
2019-05-03T05:47:45.418Z,19.73
2019-05-03T05:50:22.940Z,19.33
2019-05-03T05:52:55.094Z,19.83
2019-05-03T05:55:34.332Z,20.87
2019-05-03T05:58:08.508Z,21.10
2019-05-03T06:00:40.192Z,21.03
2019-05-03T06:03:11.224Z,20.13
2019-05-03T06:05:41.121Z,21.20
2019-05-03T06:08:12.686Z,22.07
2019-05-03T06:10:45.121Z,22.50
2019-05-03T06:13:34.452Z,21.53
2019-05-03T06:16:08.958Z,21.53
2019-05-03T06:18:54.274Z,21.67
2019-05-03T06:21:47.662Z,21.77
2019-05-03T06:24:30.051Z,21.90
2019-05-03T06:27:05.051Z,21.47
2019-05-03T06:29:37.389Z,21.33
2019-05-03T06:32:12.294Z,21.00
2019-05-03T06:34:45.385Z,21.53
2019-05-03T06:37:16.585Z,22.67
2019-05-03T06:39:46.640Z,21.27
2019-05-03T06:42:19.297Z,21.33
2019-05-03T06:44:48.189Z,20.73
2019-05-03T06:47:18.067Z,22.60
2019-05-03T06:49:48.555Z,22.87
2019-05-03T06:52:19.866Z,22.30
2019-05-03T06:54:50.592Z,22.63
2019-05-03T06:57:20.594Z,22.00
2019-05-03T06:59:54.897Z,21.57
2019-05-03T07:02:29.060Z,22.40
2019-05-03T07:05:00.594Z,21.97
2019-05-03T07:07:40.724Z,22.77
2019-05-03T07:10:18.323Z,22.87
2019-05-03T07:13:02.037Z,16.47
2019-05-03T07:15:31.906Z,13.33
2019-05-03T07:18:01.789Z,10.20
2019-05-03T07:20:35.301Z,8.40
2019-05-03T07:23:05.273Z,7.23
2019-05-03T07:25:35.128Z,5.63
2019-05-03T07:28:05.045Z,5.43
2019-05-03T07:30:36.934Z,6.57
2019-05-03T07:33:10.602Z,7.10
2019-05-03T07:35:40.459Z,7.43
2019-05-03T07:38:10.309Z,6.67
2019-05-03T07:40:40.196Z,7.87
2019-05-03T07:43:10.125Z,6.73
2019-05-03T07:45:40.165Z,6.27
2019-05-03T07:48:10.097Z,6.97
2019-05-03T07:50:39.939Z,6.57
2019-05-03T07:53:09.824Z,7.00
2019-05-03T07:55:50.392Z,6.37
2019-05-03T07:58:30.588Z,6.43
2019-05-03T08:01:08.735Z,6.23
2019-05-03T08:03:34.822Z,6.13
2019-05-03T08:06:05.166Z,5.17
2019-05-03T08:08:35.527Z,5.80
2019-05-03T08:11:05.608Z,6.07
2019-05-03T08:13:35.763Z,5.73
2019-05-03T08:16:06.067Z,6.30
2019-05-03T08:18:37.167Z,5.73
2019-05-03T08:21:07.123Z,6.53
2019-05-03T08:23:37.052Z,5.90
2019-05-03T08:26:06.985Z,7.50
2019-05-03T08:28:36.845Z,6.13
2019-05-03T08:31:26.679Z,6.50
2019-05-03T08:34:15.354Z,5.90
2019-05-03T08:36:58.657Z,5.27
2019-05-03T08:39:28.491Z,5.57
2019-05-03T08:42:04.659Z,5.80
2019-05-03T08:44:35.358Z,5.80
2019-05-03T08:47:05.460Z,5.87
2019-05-03T08:49:35.337Z,5.87
2019-05-03T08:52:05.629Z,6.10
2019-05-03T08:54:36.653Z,6.17
2019-05-03T08:57:06.597Z,5.70
2019-05-03T08:59:36.512Z,6.10
2019-05-03T09:02:14.118Z,5.97
2019-05-03T09:04:42.839Z,6.80
2019-05-03T09:07:10.693Z,6.30
2019-05-03T09:09:42.348Z,6.67
2019-05-03T09:12:12.187Z,6.93
2019-05-03T09:14:45.727Z,6.60
2019-05-03T09:17:15.284Z,6.03
2019-05-03T09:19:45.525Z,6.00
2019-05-03T09:22:15.571Z,7.03
2019-05-03T09:24:45.667Z,6.90
2019-05-03T09:27:15.630Z,6.43
2019-05-03T09:29:46.131Z,6.47
2019-05-03T09:32:16.402Z,6.50
2019-05-03T09:34:47.336Z,6.77
2019-05-03T09:37:17.170Z,6.17
2019-05-03T09:39:47.061Z,6.53
2019-05-03T09:42:16.925Z,6.60
2019-05-03T09:44:46.863Z,6.07
2019-05-03T09:47:16.699Z,6.07
2019-05-03T09:49:46.561Z,6.20
2019-05-03T09:52:16.534Z,5.47
2019-05-03T09:54:48.073Z,4.70
2019-05-03T09:57:18.010Z,4.53
2019-05-03T09:59:57.140Z,4.37
2019-05-03T10:02:19.585Z,3.90
2019-05-03T10:04:49.449Z,3.50
2019-05-03T10:07:19.409Z,3.47
2019-05-03T10:09:49.309Z,3.33
2019-05-03T10:12:25.456Z,2.67
2019-05-03T10:14:55.147Z,2.80
2019-05-03T10:17:35.792Z,2.20
2019-05-03T10:20:08.595Z,2.00
2019-05-03T10:22:38.547Z,1.60
2019-05-03T10:25:09.558Z,1.43
2019-05-03T10:27:45.865Z,1.90
2019-05-03T10:30:19.575Z,1.93
2019-05-03T10:32:51.138Z,1.80
2019-05-03T10:35:21.097Z,1.60
2019-05-03T10:37:50.998Z,1.57
2019-05-03T10:40:27.590Z,1.47
2019-05-03T10:42:57.496Z,1.33
2019-05-03T10:45:28.093Z,1.00
2019-05-03T10:47:58.335Z,1.23
2019-05-03T10:50:28.757Z,1.53
2019-05-03T10:53:09.141Z,1.50
2019-05-03T10:55:41.749Z,1.40
2019-05-03T10:58:13.261Z,1.43
2019-05-03T11:00:52.206Z,1.20
2019-05-03T11:03:17.586Z,1.60
2019-05-03T11:05:47.443Z,1.30
2019-05-03T11:08:17.470Z,1.30
2019-05-03T11:10:47.307Z,1.33
2019-05-03T11:13:17.335Z,1.30
2019-05-03T11:15:47.255Z,1.27
2019-05-03T11:18:17.489Z,1.43
2019-05-03T11:20:48.343Z,1.27
2019-05-03T11:23:18.191Z,1.40
2019-05-03T11:25:48.141Z,1.40
2019-05-03T11:28:25.601Z,1.53
2019-05-03T11:31:01.922Z,1.90
2019-05-03T11:33:32.385Z,1.83
2019-05-03T11:36:10.021Z,1.80
2019-05-03T11:38:41.582Z,1.63
2019-05-03T11:41:11.567Z,1.83
2019-05-03T11:43:41.481Z,1.40
2019-05-03T11:46:11.436Z,1.73
2019-05-03T11:48:41.275Z,1.47
2019-05-03T11:51:11.131Z,1.50
2019-05-03T11:53:41.067Z,1.90
2019-05-03T11:56:10.932Z,1.60
2019-05-03T11:58:40.942Z,1.60
2019-05-03T12:01:16.989Z,2.00
2019-05-03T12:03:45.915Z,1.90
2019-05-03T12:06:16.070Z,1.70
2019-05-03T12:08:46.148Z,2.10
2019-05-03T12:11:16.125Z,1.93
2019-05-03T12:13:46.044Z,2.07
2019-05-03T12:16:24.241Z,2.00
2019-05-03T12:18:53.537Z,2.07
2019-05-03T12:21:20.671Z,2.20
2019-05-03T12:23:51.148Z,2.10
2019-05-03T12:26:21.932Z,2.20
2019-05-03T12:28:52.522Z,2.27
2019-05-03T12:31:33.492Z,2.13
2019-05-03T12:33:55.060Z,2.10
2019-05-03T12:36:26.125Z,2.27
2019-05-03T12:38:56.052Z,2.03
2019-05-03T12:41:25.987Z,2.00
2019-05-03T12:43:55.934Z,1.93
2019-05-03T12:46:26.835Z,2.27
2019-05-03T12:48:56.776Z,1.90
2019-05-03T12:51:26.695Z,2.03
2019-05-03T12:53:56.559Z,2.93
2019-05-03T12:56:32.681Z,2.47
2019-05-03T12:59:05.977Z,2.70
2019-05-03T13:01:55.691Z,2.37
2019-05-03T13:04:29.457Z,2.50
2019-05-03T13:07:05.405Z,2.80
2019-05-03T13:09:35.810Z,3.17
2019-05-03T13:12:07.152Z,2.80
2019-05-03T13:14:37.136Z,2.83
2019-05-03T13:17:07.105Z,3.07
2019-05-03T13:19:37.043Z,3.00
2019-05-03T13:22:07.877Z,3.20
2019-05-03T13:24:37.739Z,3.17
2019-05-03T13:27:07.624Z,3.20
2019-05-03T13:29:37.570Z,3.33
2019-05-03T13:32:07.504Z,3.43
2019-05-03T13:34:37.486Z,3.40
2019-05-03T13:37:07.411Z,3.37
2019-05-03T13:39:37.360Z,4.23
2019-05-03T13:42:07.434Z,4.43
2019-05-03T13:44:37.409Z,4.40
2019-05-03T13:47:07.356Z,3.97
2019-05-03T13:49:37.319Z,4.57
2019-05-03T13:52:07.253Z,4.27
2019-05-03T13:54:37.184Z,4.07
2019-05-03T13:57:07.112Z,4.20
2019-05-03T13:59:37.156Z,4.47
2019-05-03T14:02:15.085Z,4.03
2019-05-03T14:04:49.340Z,4.67
2019-05-03T14:07:10.308Z,4.27
2019-05-03T14:09:40.548Z,4.03
2019-05-03T14:12:10.545Z,4.10
2019-05-03T14:14:55.347Z,4.77
2019-05-03T14:17:26.327Z,4.20
2019-05-03T14:19:58.005Z,4.17
2019-05-03T14:22:29.568Z,4.53
2019-05-03T14:24:59.451Z,4.63
2019-05-03T14:27:29.387Z,3.90
2019-05-03T14:29:59.354Z,4.27
2019-05-03T14:32:29.288Z,3.93
2019-05-03T14:34:59.315Z,3.57
2019-05-03T14:37:29.162Z,4.07
2019-05-03T14:39:59.047Z,3.63
2019-05-03T14:42:28.984Z,4.20
2019-05-03T14:45:00.089Z,3.80
2019-05-03T14:47:31.200Z,4.13
2019-05-03T14:50:01.043Z,3.80
2019-05-03T14:52:30.946Z,3.57
2019-05-03T14:55:02.458Z,3.70
2019-05-03T14:57:38.475Z,4.00
2019-05-03T15:00:19.813Z,3.90
2019-05-03T15:02:55.325Z,3.60
2019-05-03T15:05:25.989Z,4.13
2019-05-03T15:07:56.008Z,3.80
2019-05-03T15:10:26.171Z,3.70
2019-05-03T15:12:56.096Z,3.70
2019-05-03T15:15:28.725Z,3.73
2019-05-03T15:17:57.659Z,3.40
2019-05-03T15:20:27.542Z,4.23
2019-05-03T15:22:57.447Z,3.60
2019-05-03T15:25:27.315Z,4.07
2019-05-03T15:27:57.194Z,4.20
2019-05-03T15:30:27.154Z,3.90
2019-05-03T15:33:00.726Z,4.50
2019-05-03T15:35:28.658Z,4.30
2019-05-03T15:37:58.599Z,4.17
2019-05-03T15:40:28.521Z,4.03
2019-05-03T15:43:00.023Z,4.37
2019-05-03T15:45:40.448Z,4.17
2019-05-03T15:48:11.982Z,3.47
2019-05-03T15:50:41.885Z,3.93
2019-05-03T15:53:11.842Z,3.90
2019-05-03T15:55:42.740Z,4.00
2019-05-03T15:58:12.613Z,3.70
2019-05-03T16:00:44.417Z,3.20
2019-05-03T16:03:14.524Z,3.67
2019-05-03T16:05:44.801Z,3.80
2019-05-03T16:08:15.421Z,3.40
2019-05-03T16:10:45.733Z,3.87
2019-05-03T16:13:15.805Z,4.20
2019-05-03T16:15:45.744Z,4.10
2019-05-03T16:18:15.731Z,4.70
2019-05-03T16:20:45.631Z,4.37
2019-05-03T16:23:15.581Z,4.53
2019-05-03T16:25:45.478Z,4.27
2019-05-03T16:28:17.000Z,4.03
2019-05-03T16:30:49.652Z,3.93
2019-05-03T16:33:27.147Z,5.03
2019-05-03T16:35:51.212Z,4.50
2019-05-03T16:38:21.692Z,4.50
2019-05-03T16:40:51.519Z,4.63
2019-05-03T16:43:21.393Z,4.47
2019-05-03T16:45:51.246Z,4.40
2019-05-03T16:48:21.092Z,4.30
2019-05-03T16:50:50.956Z,4.30
2019-05-03T16:53:21.890Z,5.20
2019-05-03T16:55:51.824Z,5.30
2019-05-03T16:58:21.753Z,5.13
2019-05-03T17:00:51.594Z,5.10
2019-05-03T17:03:37.952Z,4.63
2019-05-03T17:06:05.653Z,4.50
2019-05-03T17:08:45.162Z,4.73
2019-05-03T17:11:16.548Z,5.13
2019-05-03T17:13:47.978Z,5.27
2019-05-03T17:16:18.097Z,4.93
2019-05-03T17:18:48.048Z,4.73
2019-05-03T17:21:17.922Z,4.83
2019-05-03T17:23:47.928Z,5.23
2019-05-03T17:26:17.901Z,5.37
2019-05-03T17:28:48.681Z,5.70
2019-05-03T17:31:18.532Z,5.47
2019-05-03T17:33:53.263Z,5.50
2019-05-03T17:36:20.013Z,5.10
2019-05-03T17:38:51.554Z,4.63
2019-05-03T17:41:29.106Z,4.77
2019-05-03T17:44:00.688Z,5.27
2019-05-03T17:46:30.620Z,4.90
2019-05-03T17:49:00.513Z,5.00
2019-05-03T17:51:48.819Z,4.37
2019-05-03T17:54:26.278Z,4.83
2019-05-03T17:56:58.801Z,4.47
2019-05-03T17:59:30.313Z,4.23
2019-05-03T18:02:10.996Z,3.80
2019-05-03T18:04:42.576Z,4.60
2019-05-03T18:07:14.947Z,4.60
2019-05-03T18:09:46.654Z,4.57
2019-05-03T18:12:16.527Z,4.90
2019-05-03T18:14:46.548Z,5.37
2019-05-03T18:17:16.642Z,5.37
2019-05-03T18:19:47.862Z,4.93
2019-05-03T18:22:17.980Z,5.37
2019-05-03T18:24:47.953Z,5.70
2019-05-03T18:27:17.893Z,5.30
2019-05-03T18:29:47.865Z,7.33
2019-05-03T18:32:17.893Z,5.50
2019-05-03T18:34:47.771Z,15.23
2019-05-03T18:37:17.644Z,6.73
2019-05-03T18:39:49.022Z,6.00
2019-05-03T18:42:30.758Z,5.50
2019-05-03T18:45:09.309Z,5.03
2019-05-03T18:47:39.405Z,6.27
2019-05-03T18:50:09.568Z,6.37
2019-05-03T18:52:40.540Z,5.77
2019-05-03T18:55:10.644Z,5.70
2019-05-03T18:57:40.551Z,5.67
2019-05-03T19:00:11.073Z,6.00
2019-05-03T19:02:44.400Z,5.97
2019-05-03T19:05:18.728Z,6.30
2019-05-03T19:08:00.116Z,6.03
2019-05-03T19:10:35.397Z,6.67
2019-05-03T19:13:07.075Z,6.30
2019-05-03T19:15:37.331Z,6.67
2019-05-03T19:18:12.340Z,5.57
2019-05-03T19:20:42.347Z,6.23
2019-05-03T19:23:12.344Z,5.40
2019-05-03T19:25:46.816Z,5.30
2019-05-03T19:28:14.093Z,6.13
2019-05-03T19:30:46.032Z,5.63
2019-05-03T19:33:16.017Z,5.07
2019-05-03T19:35:46.030Z,6.20
2019-05-03T19:38:16.274Z,5.80
2019-05-03T19:40:46.307Z,6.30
2019-05-03T19:43:16.295Z,5.60
2019-05-03T19:45:46.312Z,6.50
2019-05-03T19:48:16.960Z,5.73
2019-05-03T19:50:48.301Z,6.33
2019-05-03T19:53:30.057Z,7.00
2019-05-03T19:56:01.291Z,6.87
2019-05-03T19:58:31.520Z,6.97
2019-05-03T20:01:05.638Z,7.97
2019-05-03T20:03:45.502Z,7.30
2019-05-03T20:06:19.191Z,7.90
2019-05-03T20:08:55.397Z,9.13
2019-05-03T20:11:29.551Z,8.23
2019-05-03T20:14:00.725Z,8.63
2019-05-03T20:16:31.804Z,7.80
2019-05-03T20:19:17.745Z,7.10
2019-05-03T20:21:39.185Z,7.37
2019-05-03T20:24:14.873Z,8.07
2019-05-03T20:26:46.694Z,6.93
2019-05-03T20:29:19.431Z,7.00
2019-05-03T20:31:51.640Z,6.13
2019-05-03T20:34:24.837Z,6.83
2019-05-03T20:36:55.430Z,6.57
2019-05-03T20:39:27.688Z,6.13
2019-05-03T20:41:59.817Z,6.97
2019-05-03T20:44:41.911Z,7.03
2019-05-03T20:47:25.556Z,6.47
2019-05-03T20:50:16.750Z,6.50
2019-05-03T20:52:49.222Z,8.30
2019-05-03T20:55:20.708Z,7.13
2019-05-03T20:57:54.915Z,6.70
2019-05-03T21:00:32.293Z,7.33
2019-05-03T21:03:06.244Z,6.93
2019-05-03T21:05:40.236Z,7.77
2019-05-03T21:08:14.699Z,6.97
2019-05-03T21:10:45.133Z,7.57
2019-05-03T21:13:17.662Z,7.13
2019-05-03T21:16:06.596Z,7.97
2019-05-03T21:18:39.408Z,7.47
2019-05-03T21:21:12.310Z,7.77
2019-05-03T21:23:44.970Z,7.50
2019-05-03T21:26:16.656Z,8.60
2019-05-03T21:28:46.843Z,8.23
2019-05-03T21:31:16.746Z,7.73
2019-05-03T21:33:46.733Z,8.33
2019-05-03T21:36:16.703Z,8.03
2019-05-03T21:38:46.748Z,7.53
2019-05-03T21:41:16.655Z,8.43
2019-05-03T21:43:46.587Z,8.60
2019-05-03T21:46:27.368Z,8.73
2019-05-03T21:48:58.945Z,9.33
2019-05-03T21:51:29.041Z,8.47
2019-05-03T21:53:59.000Z,8.80
2019-05-03T21:56:28.835Z,8.90
2019-05-03T21:58:58.728Z,8.33
2019-05-03T22:01:28.878Z,8.47
2019-05-03T22:03:58.804Z,8.60
2019-05-03T22:06:28.696Z,7.73
2019-05-03T22:08:58.608Z,8.67
2019-05-03T22:11:29.626Z,8.50
2019-05-03T22:14:01.731Z,8.57
2019-05-03T22:16:45.730Z,7.73
2019-05-03T22:19:17.963Z,8.40
2019-05-03T22:22:05.445Z,7.97
2019-05-03T22:24:42.106Z,7.87
2019-05-03T22:27:15.271Z,8.77
2019-05-03T22:29:45.127Z,8.07
2019-05-03T22:32:15.554Z,7.97
2019-05-03T22:34:45.723Z,7.80
2019-05-03T22:37:16.663Z,7.60
2019-05-03T22:39:47.928Z,7.83
2019-05-03T22:42:18.007Z,7.17
2019-05-03T22:44:47.871Z,8.17
2019-05-03T22:47:17.786Z,7.67
2019-05-03T22:49:47.660Z,7.30
2019-05-03T22:52:17.562Z,7.70
2019-05-03T22:54:47.437Z,7.63
2019-05-03T22:57:17.444Z,8.03
2019-05-03T22:59:48.363Z,8.73
2019-05-03T23:02:18.353Z,8.17
2019-05-03T23:04:49.261Z,7.50
2019-05-03T23:07:19.170Z,7.93
2019-05-03T23:09:49.146Z,8.17
2019-05-03T23:12:19.054Z,7.47
2019-05-03T23:14:48.980Z,7.73
2019-05-03T23:17:18.811Z,7.67
2019-05-03T23:19:50.400Z,7.70
2019-05-03T23:22:21.893Z,7.77
2019-05-03T23:24:51.832Z,7.63
2019-05-03T23:27:21.749Z,7.90
2019-05-03T23:29:51.628Z,7.93
2019-05-03T23:32:21.541Z,7.93
2019-05-03T23:34:51.519Z,8.27
2019-05-03T23:37:21.465Z,8.20
2019-05-03T23:39:51.344Z,7.93
2019-05-03T23:42:21.262Z,8.17
2019-05-03T23:44:51.104Z,7.77
2019-05-03T23:47:28.224Z,8.90
2019-05-03T23:49:58.151Z,8.33
2019-05-03T23:52:29.627Z,8.33
2019-05-03T23:55:05.787Z,8.07
2019-05-03T23:57:35.805Z,8.43
